Aeroporto :
LOGIN :

Iscrizione | Disclaimer

   EN    FR    IT 

 










Sommario :    VFR   VFR Marginale   IFR   IFR Intensivo   IFR Molto Intensivo
Visibilità : 
Base nubi : 
>= 8 km
>= 3000ft
5 / 8 km
1000 / 3000 ft
1500m / 5 km
500 / 1000 ft
800 / 1500m
200 / 500 ft
< 800m
< 200 ft
Simboli :   Temporali  Nebbia  Neve Forte  Precipitazioni Forti  Vento > 20 kt
SIGMETs :   Varie  Temporali  Ghiacco  Turbolenza  Onda orograficha  Ceneri Vulcaniche






- Altitudine del aeroporto : 502 ft
- Codice IATA : ORK


EICK - Cork

ULTIMO METAR :
  • 301930Z 31011KT 9999 -DZ FEW007 BKN010 10/09 Q1027 TEMPO BKN007

METARs OBSOLETI :
  • 301900Z 31011KT 9999 BKN010 BKN040 BKN060 10/09 Q1027 TEMPO BKN007
  • 301830Z 30010KT 9999 BKN010 10/08 Q1027 TEMPO BKN007
  • 301800Z 30009KT 9999 BKN010 10/08 Q1027 TEMPO BKN007
  • 301730Z 30010KT 9999 BKN012 BKN160 BKN250 10/08 Q1027 NOSIG
  • 301700Z 29009KT 9999 FEW012 BKN160 BKN250 10/08 Q1027 NOSIG

TAF TAF EICK
Valido dal 30 a 18 ore il 01 a 18 ore UTC


301700Z 3018/0118 31009KT 9999 FEW010 BKN020
TEMPO 3018/3020 4000 -DZ BKN007
BECMG 3020/3022 3000 -DZ BKN004
TEMPO 3022/0110 1500 BR BKN002
PROB40 3022/0107 0300 FG BKN001
BECMG 0110/0112 9999 NSW SCT005 BKN010



MetMap, La meteo Aeronautica in un colpo d'occhio ! - Copyright ORBIFLY Dicembre 2007 - Disclaimer

ORBIFLY MET'MAP TEAM :

Programmazione e sviluppo : Alexandra Zaïnal
Concezione : Baudouin d'Aumeries
Aiuto per la programmazione : Marc-Olivier Méhu
Supporto tecnico e logistico : Manuel Goepfert
Aiuto per la traduzione : Arnaldo La Scala

Contatto : metmap@orbifly.com




FONTI E CREDITI :

   NOAA